Time;durP1;ratioP1;P1;durP2;ratioP2;P2;SDS_P1;SDS_P2;PMS_P1;PMS_P2;Temp;Humidity;BMP_temperature;BMP_pressure;BME280_temperature;BME280_humidity;BME280_pressure;Samples;Min_cycle;Max_cycle;Signal;HPM_P1;HPM_P2
2023/07/12 00:00:23;;;;;;;3.20;2.40;;;25.90;81.30;;;;;;5070815;28;20237;-72
2023/07/12 00:02:50;;;;;;;3.33;2.47;;;25.90;82.00;;;;;;5070393;28;20200;-72
2023/07/12 00:05:18;;;;;;;3.13;2.40;;;25.90;81.40;;;;;;5070610;28;20204;-72
2023/07/12 00:07:46;;;;;;;3.40;2.47;;;26.00;81.60;;;;;;5070959;28;20226;-72
2023/07/12 00:10:19;;;;;;;2.90;2.60;;;26.00;81.60;;;;;;5070670;28;20233;-72
2023/07/12 00:12:48;;;;;;;3.90;2.80;;;26.00;81.40;;;;;;5070368;28;20189;-73
2023/07/12 00:15:19;;;;;;;3.67;3.10;;;26.00;81.80;;;;;;5070441;28;20602;-72
2023/07/12 00:17:46;;;;;;;4.60;2.87;;;26.00;81.30;;;;;;5070654;28;20197;-72
2023/07/12 00:20:24;;;;;;;3.17;2.70;;;26.00;81.40;;;;;;5070566;28;20233;-72
2023/07/12 00:22:52;;;;;;;4.00;2.30;;;26.10;81.80;;;;;;5070249;28;20200;-72
2023/07/12 00:25:20;;;;;;;2.67;2.43;;;26.20;81.40;;;;;;5070559;28;20209;-72
2023/07/12 00:27:49;;;;;;;4.07;2.30;;;26.30;81.70;;;;;;5051668;28;20292;-72
2023/07/12 00:30:21;;;;;;;2.60;2.27;;;26.30;81.20;;;;;;5055620;28;20185;-72
2023/07/12 00:32:50;;;;;;;5.83;2.67;;;26.30;81.90;;;;;;5070299;28;20580;-72
2023/07/12 00:35:18;;;;;;;3.73;2.67;;;26.40;81.90;;;;;;5051265;28;20198;-73
2023/07/12 00:37:45;;;;;;;3.93;2.60;;;26.30;81.60;;;;;;5070270;28;20325;-73
2023/07/12 00:40:48;;;;;;;3.23;2.17;;;26.40;81.30;;;;;;5070321;28;20712;-72
2023/07/12 00:43:23;;;;;;;3.57;2.53;;;26.40;82.50;;;;;;5058795;28;20194;-73
2023/07/12 00:45:52;;;;;;;2.93;2.63;;;26.40;82.20;;;;;;5064072;28;20726;-74
2023/07/12 00:48:19;;;;;;;3.20;2.87;;;26.40;82.10;;;;;;5074419;28;20202;-73
2023/07/12 00:50:47;;;;;;;3.90;2.60;;;26.30;82.00;;;;;;5073583;28;20709;-73
2023/07/12 00:53:18;;;;;;;4.50;2.60;;;26.40;82.30;;;;;;5073693;28;20205;-73
2023/07/12 00:56:04;;;;;;;3.03;2.37;;;26.40;82.50;;;;;;5073861;28;20243;-73
2023/07/12 00:58:36;;;;;;;3.03;2.47;;;26.40;83.20;;;;;;5074018;28;20216;-73
2023/07/12 01:01:04;;;;;;;3.93;2.60;;;26.40;82.60;;;;;;5073508;28;20193;-73
2023/07/12 01:03:35;;;;;;;3.70;2.37;;;26.40;82.50;;;;;;5073549;28;20225;-73
2023/07/12 01:06:03;;;;;;;4.07;2.40;;;26.40;82.60;;;;;;5073890;28;20400;-73
2023/07/12 01:08:31;;;;;;;5.43;2.67;;;26.30;82.40;;;;;;5073519;28;20563;-73
2023/07/12 01:11:03;;;;;;;3.80;2.50;;;26.40;82.50;;;;;;5073977;28;20289;-73
2023/07/12 01:13:31;;;;;;;4.93;2.80;;;26.40;82.60;;;;;;5073894;28;20190;-73
2023/07/12 01:16:02;;;;;;;4.70;2.70;;;26.30;82.40;;;;;;5073818;28;20313;-73
2023/07/12 01:18:29;;;;;;;3.40;2.43;;;26.30;82.50;;;;;;5073760;28;20205;-73
2023/07/12 01:21:09;;;;;;;4.27;2.33;;;26.30;82.60;;;;;;5072449;28;20317;-73
2023/07/12 01:23:37;;;;;;;5.10;2.53;;;26.30;83.20;;;;;;5073204;28;20197;-73
2023/07/12 01:26:17;;;;;;;5.87;2.73;;;26.30;82.70;;;;;;5072695;28;20191;-73
2023/07/12 01:28:44;;;;;;;7.63;2.93;;;26.30;83.40;;;;;;5073317;28;20209;-74
2023/07/12 01:31:11;;;;;;;4.27;3.17;;;26.30;82.90;;;;;;5073357;28;20209;-73
2023/07/12 01:33:38;;;;;;;4.77;2.40;;;26.30;83.00;;;;;;5073257;28;20320;-73
2023/07/12 01:36:06;;;;;;;2.97;2.60;;;26.30;83.00;;;;;;5073051;28;20223;-73
2023/07/12 01:38:35;;;;;;;5.33;3.37;;;26.30;83.10;;;;;;5072289;28;20205;-73
2023/07/12 01:41:02;;;;;;;7.13;3.00;;;26.30;82.90;;;;;;5072492;28;20212;-73
2023/07/12 01:43:29;;;;;;;4.17;2.50;;;26.30;82.60;;;;;;5059405;28;20206;-73
2023/07/12 01:45:56;;;;;;;6.50;2.83;;;26.20;82.60;;;;;;5068901;28;20214;-73
2023/07/12 01:48:23;;;;;;;5.70;3.03;;;26.20;82.50;;;;;;5072605;28;20545;-73
2023/07/12 01:50:50;;;;;;;10.23;3.20;;;26.20;82.60;;;;;;5072448;28;20234;-73
2023/07/12 01:53:18;;;;;;;6.63;2.90;;;26.20;82.60;;;;;;5072928;28;20217;-73
2023/07/12 01:55:45;;;;;;;9.77;3.00;;;26.10;82.90;;;;;;5072212;28;20213;-73
2023/07/12 01:58:13;;;;;;;7.10;2.90;;;26.10;83.00;;;;;;5072650;28;20297;-73
2023/07/12 02:00:39;;;;;;;6.80;2.63;;;26.10;83.10;;;;;;5072586;28;20236;-73
2023/07/12 02:03:06;;;;;;;5.07;3.43;;;26.10;83.10;;;;;;5072410;28;20287;-73
2023/07/12 02:05:33;;;;;;;4.60;2.60;;;26.10;83.20;;;;;;5072006;28;20236;-73
2023/07/12 02:08:00;;;;;;;3.20;2.80;;;26.00;83.20;;;;;;5072909;28;20212;-73
2023/07/12 02:10:29;;;;;;;4.70;2.53;;;26.00;83.20;;;;;;5072654;28;20225;-73
2023/07/12 02:12:56;;;;;;;4.53;2.60;;;26.00;83.30;;;;;;5072151;28;20201;-73
2023/07/12 02:15:23;;;;;;;5.20;2.83;;;26.00;83.00;;;;;;5071789;28;20201;-73
2023/07/12 02:17:50;;;;;;;3.93;2.50;;;26.00;83.20;;;;;;5071776;28;20227;-73
2023/07/12 02:20:17;;;;;;;3.20;2.90;;;26.00;83.30;;;;;;5071829;28;20233;-73
2023/07/12 02:22:45;;;;;;;4.60;2.50;;;26.00;83.40;;;;;;5072326;28;20235;-73
2023/07/12 02:25:13;;;;;;;4.43;2.73;;;25.90;83.50;;;;;;5072383;28;20205;-73
2023/07/12 02:27:44;;;;;;;3.30;2.70;;;25.90;83.30;;;;;;5071791;28;20229;-73
2023/07/12 02:30:13;;;;;;;2.83;2.63;;;25.90;83.30;;;;;;5071839;28;20201;-73
2023/07/12 02:32:40;;;;;;;3.37;2.90;;;25.90;83.20;;;;;;5072034;28;20208;-73
2023/07/12 02:35:08;;;;;;;3.70;2.80;;;25.90;83.10;;;;;;5072049;28;20218;-73
2023/07/12 02:37:35;;;;;;;3.20;2.60;;;25.80;83.20;;;;;;5072015;28;20573;-73
2023/07/12 02:40:01;;;;;;;5.67;2.63;;;25.80;83.30;;;;;;5072175;28;20671;-73
2023/07/12 02:42:28;;;;;;;3.47;2.63;;;25.80;83.40;;;;;;5071675;28;20209;-73
2023/07/12 02:44:57;;;;;;;4.50;2.83;;;25.80;83.30;;;;;;5071595;28;20216;-73
2023/07/12 02:47:23;;;;;;;4.83;2.90;;;25.80;83.40;;;;;;5071890;28;20338;-73
2023/07/12 02:49:50;;;;;;;6.30;3.13;;;25.80;83.30;;;;;;5071302;28;20201;-73
2023/07/12 02:52:17;;;;;;;3.37;2.47;;;25.80;83.30;;;;;;5071737;28;20219;-73
2023/07/12 02:54:44;;;;;;;4.50;2.67;;;25.80;83.40;;;;;;5071635;28;20210;-73
2023/07/12 02:57:13;;;;;;;2.83;2.60;;;25.70;83.30;;;;;;5071670;28;20208;-73
2023/07/12 02:59:40;;;;;;;3.47;3.07;;;25.70;83.50;;;;;;5071471;28;20229;-73
2023/07/12 03:02:10;;;;;;;3.37;2.60;;;25.70;83.50;;;;;;5071570;28;20205;-73
2023/07/12 03:04:37;;;;;;;3.80;3.13;;;25.70;83.60;;;;;;5070812;28;20259;-73
2023/07/12 03:07:04;;;;;;;3.63;2.67;;;25.70;83.50;;;;;;5071169;28;20194;-73
2023/07/12 03:09:31;;;;;;;4.93;2.80;;;25.70;83.40;;;;;;5070941;28;20213;-73
2023/07/12 03:11:59;;;;;;;3.20;2.90;;;25.70;83.00;;;;;;5061933;28;20203;-73
2023/07/12 03:14:26;;;;;;;3.17;2.87;;;25.50;83.10;;;;;;5071457;28;20231;-73
2023/07/12 03:16:53;;;;;;;4.57;2.63;;;25.40;83.40;;;;;;5071100;28;20213;-73
2023/07/12 03:19:23;;;;;;;4.10;2.80;;;25.30;83.50;;;;;;5070432;28;20649;-72
2023/07/12 03:21:50;;;;;;;3.70;2.60;;;25.40;83.70;;;;;;5070858;28;20688;-74
2023/07/12 03:24:17;;;;;;;3.53;2.53;;;25.30;83.50;;;;;;5071350;28;20235;-73
2023/07/12 03:26:44;;;;;;;2.40;2.20;;;25.30;83.50;;;;;;5071198;28;20231;-72
2023/07/12 03:29:10;;;;;;;5.10;2.90;;;25.30;83.40;;;;;;5070900;28;20311;-74
2023/07/12 03:31:37;;;;;;;3.37;2.43;;;25.30;83.30;;;;;;5070752;28;20290;-74
2023/07/12 03:34:04;;;;;;;5.80;2.60;;;25.30;83.60;;;;;;5071046;28;20209;-73
2023/07/12 03:36:33;;;;;;;5.23;3.30;;;25.30;83.60;;;;;;5071289;28;20203;-73
2023/07/12 03:39:00;;;;;;;3.07;2.80;;;25.30;83.50;;;;;;5070775;28;20819;-73
2023/07/12 03:41:28;;;;;;;4.30;2.90;;;25.30;83.60;;;;;;5071089;28;20213;-74
2023/07/12 03:43:55;;;;;;;3.47;2.60;;;25.30;83.80;;;;;;5069234;28;20725;-71
2023/07/12 03:46:22;;;;;;;3.27;2.87;;;25.30;83.80;;;;;;5064244;28;20684;-73
2023/07/12 03:48:49;;;;;;;4.00;3.17;;;25.30;83.60;;;;;;5070809;28;20292;-71
2023/07/12 03:51:17;;;;;;;5.17;2.63;;;25.20;83.50;;;;;;5070625;28;20539;-72
2023/07/12 03:53:46;;;;;;;4.83;2.93;;;25.20;83.50;;;;;;5071066;28;20192;-72
2023/07/12 03:56:13;;;;;;;3.43;3.00;;;25.20;83.80;;;;;;5071136;28;20304;-72
2023/07/12 03:58:41;;;;;;;3.33;3.00;;;25.10;83.70;;;;;;5070431;28;20304;-71
2023/07/12 04:01:10;;;;;;;3.97;3.17;;;25.10;83.80;;;;;;5070273;28;20660;-72
2023/07/12 04:03:36;;;;;;;3.93;3.07;;;25.10;84.20;;;;;;5070916;28;20296;-71
2023/07/12 04:06:04;;;;;;;4.23;2.80;;;25.10;84.10;;;;;;5065553;28;20198;-73
2023/07/12 04:08:31;;;;;;;4.47;2.97;;;25.00;84.20;;;;;;5050576;28;20222;-72
2023/07/12 04:11:00;;;;;;;4.90;2.93;;;25.10;84.30;;;;;;5064955;28;20311;-71
2023/07/12 04:13:28;;;;;;;4.20;3.03;;;25.10;84.30;;;;;;5070510;28;20201;-74
2023/07/12 04:15:56;;;;;;;3.27;2.87;;;25.20;84.10;;;;;;5070421;28;20209;-72
2023/07/12 04:18:24;;;;;;;3.97;2.80;;;25.20;84.30;;;;;;5070531;28;20211;-72
2023/07/12 04:20:51;;;;;;;3.10;2.77;;;25.20;84.30;;;;;;5074405;28;20594;-72
2023/07/12 04:23:18;;;;;;;4.43;3.07;;;25.20;84.40;;;;;;5074327;28;20212;-72
2023/07/12 04:25:45;;;;;;;3.47;3.13;;;25.20;84.10;;;;;;5074751;28;20204;-72
2023/07/12 04:28:13;;;;;;;3.53;2.80;;;25.20;84.20;;;;;;5074060;28;20204;-72
2023/07/12 04:30:40;;;;;;;3.67;3.37;;;25.20;84.20;;;;;;5073514;28;20193;-72
2023/07/12 04:33:07;;;;;;;4.97;3.20;;;25.20;84.10;;;;;;5070003;28;20213;-72
2023/07/12 04:35:39;;;;;;;7.27;3.13;;;25.20;84.20;;;;;;5074424;28;20201;-72
2023/07/12 04:38:06;;;;;;;4.67;3.20;;;25.10;84.90;;;;;;5074161;28;20196;-72
2023/07/12 04:40:33;;;;;;;3.90;3.50;;;25.10;85.20;;;;;;5074276;28;20211;-73
2023/07/12 04:43:00;;;;;;;4.53;3.23;;;25.10;85.40;;;;;;5074319;28;20201;-72
2023/07/12 04:45:29;;;;;;;3.70;3.10;;;25.10;85.60;;;;;;5074102;28;20226;-72
2023/07/12 04:47:56;;;;;;;4.47;3.43;;;25.20;85.70;;;;;;5074025;28;20205;-72
2023/07/12 04:50:23;;;;;;;5.53;3.73;;;25.30;85.70;;;;;;5073598;28;20684;-72
2023/07/12 04:52:50;;;;;;;4.57;4.00;;;25.30;85.80;;;;;;5073642;28;20201;-72
2023/07/12 04:55:23;;;;;;;7.23;4.37;;;25.40;86.00;;;;;;5073906;28;20209;-73
2023/07/12 04:57:50;;;;;;;5.43;3.77;;;25.40;86.30;;;;;;5074089;28;20283;-72
2023/07/12 05:00:18;;;;;;;6.23;3.73;;;25.50;85.80;;;;;;5072130;28;20320;-72
2023/07/12 05:02:47;;;;;;;5.40;3.90;;;25.60;85.90;;;;;;5053968;28;20298;-73
2023/07/12 05:05:14;;;;;;;6.10;4.43;;;25.60;85.90;;;;;;5062191;28;20197;-69
2023/07/12 05:07:41;;;;;;;4.87;3.67;;;25.60;85.60;;;;;;5058253;28;20226;-68
2023/07/12 05:10:09;;;;;;;6.73;3.80;;;25.60;85.20;;;;;;5063230;28;20848;-68
2023/07/12 05:12:36;;;;;;;5.03;3.57;;;25.70;85.40;;;;;;5063916;28;20198;-68
2023/07/12 05:15:04;;;;;;;7.33;4.00;;;25.80;84.70;;;;;;5052746;28;20226;-68
2023/07/12 05:17:30;;;;;;;5.87;4.00;;;25.80;84.60;;;;;;5053358;28;20206;-68
2023/07/12 05:19:58;;;;;;;5.00;3.77;;;25.80;84.40;;;;;;5071127;28;20239;-67
2023/07/12 05:22:26;;;;;;;6.57;4.60;;;25.80;84.40;;;;;;5072047;28;20198;-67
2023/07/12 05:24:53;;;;;;;4.93;4.30;;;25.80;85.40;;;;;;5072778;28;20225;-67
2023/07/12 05:27:20;;;;;;;6.33;3.93;;;25.70;85.00;;;;;;5073201;28;20209;-68
2023/07/12 05:29:47;;;;;;;6.17;4.03;;;25.70;85.20;;;;;;5071272;28;20205;-68
2023/07/12 05:32:14;;;;;;;5.67;4.40;;;25.60;85.50;;;;;;5070717;28;20262;-71
2023/07/12 05:34:41;;;;;;;4.97;4.40;;;25.60;85.30;;;;;;5071490;28;20197;-71
2023/07/12 05:37:09;;;;;;;6.20;4.60;;;25.60;85.50;;;;;;5051920;28;20206;-71
2023/07/12 05:39:36;;;;;;;6.00;4.07;;;25.60;85.90;;;;;;5051930;28;20209;-71
2023/07/12 05:42:03;;;;;;;6.70;4.50;;;25.50;86.10;;;;;;5060779;28;20592;-71
2023/07/12 05:44:30;;;;;;;7.47;4.30;;;25.40;86.30;;;;;;5072394;28;20213;-70
2023/07/12 05:46:57;;;;;;;6.37;4.53;;;25.50;86.30;;;;;;5072805;28;20209;-72
2023/07/12 05:49:24;;;;;;;7.13;4.37;;;25.70;86.00;;;;;;5071731;28;20217;-73
2023/07/12 05:51:52;;;;;;;4.90;4.30;;;25.70;85.70;;;;;;5073106;28;20198;-72
2023/07/12 05:54:20;;;;;;;7.07;4.50;;;25.60;85.90;;;;;;5073560;28;20204;-72
2023/07/12 05:56:47;;;;;;;5.37;4.33;;;25.60;86.00;;;;;;5054556;28;20754;-72
2023/07/12 05:59:15;;;;;;;7.33;4.40;;;25.60;85.80;;;;;;5069496;28;20238;-72
2023/07/12 06:01:42;;;;;;;6.10;4.30;;;25.70;85.80;;;;;;5068325;28;20244;-72
2023/07/12 06:04:11;;;;;;;5.87;4.63;;;25.60;85.30;;;;;;5064457;28;20216;-70
2023/07/12 06:06:38;;;;;;;8.00;4.57;;;25.60;85.50;;;;;;5072722;28;20193;-73
2023/07/12 06:09:05;;;;;;;6.97;4.80;;;25.70;85.40;;;;;;5072037;28;20232;-71
2023/07/12 06:11:33;;;;;;;8.60;4.70;;;25.70;85.40;;;;;;5071964;28;20208;-70
2023/07/12 06:14:00;;;;;;;5.90;4.23;;;25.80;85.10;;;;;;5071726;28;20706;-72
2023/07/12 06:16:27;;;;;;;5.40;4.10;;;25.80;84.70;;;;;;5071802;28;20205;-72
2023/07/12 06:18:54;;;;;;;4.73;4.00;;;25.80;84.40;;;;;;5071817;28;20208;-72
2023/07/12 06:21:21;;;;;;;7.97;4.07;;;25.80;84.00;;;;;;5071989;28;20239;-72
2023/07/12 06:23:49;;;;;;;6.90;4.27;;;25.80;84.20;;;;;;5057875;28;20249;-71
2023/07/12 06:26:16;;;;;;;6.80;4.13;;;25.90;84.10;;;;;;5068460;28;20216;-71
2023/07/12 06:28:44;;;;;;;4.20;3.80;;;26.00;84.10;;;;;;5071218;28;20320;-72
2023/07/12 06:31:11;;;;;;;4.40;3.80;;;26.10;83.30;;;;;;5069494;28;20297;-71
2023/07/12 06:33:39;;;;;;;6.30;4.10;;;26.20;82.50;;;;;;5056328;28;20917;-71
2023/07/12 06:36:06;;;;;;;5.60;4.30;;;26.10;82.10;;;;;;5051124;28;20207;-71
2023/07/12 06:38:33;;;;;;;4.90;4.03;;;26.20;82.60;;;;;;5050808;28;20212;-72
2023/07/12 06:41:00;;;;;;;6.37;4.33;;;26.20;81.90;;;;;;5050775;28;20223;-71
2023/07/12 06:43:27;;;;;;;6.03;4.13;;;26.40;81.60;;;;;;5063831;28;20586;-71
2023/07/12 06:45:56;;;;;;;5.70;3.77;;;26.40;80.60;;;;;;5071094;28;20205;-72
2023/07/12 06:48:24;;;;;;;6.60;4.43;;;26.40;80.80;;;;;;5070713;28;20229;-72
2023/07/12 06:50:51;;;;;;;7.07;4.40;;;26.40;80.80;;;;;;5070874;28;20294;-72
2023/07/12 06:53:18;;;;;;;6.30;4.50;;;26.50;80.60;;;;;;5070271;28;20737;-72
2023/07/12 06:55:48;;;;;;;5.33;3.83;;;26.50;80.00;;;;;;5070887;28;20206;-72
2023/07/12 06:58:15;;;;;;;6.50;3.90;;;26.50;79.40;;;;;;5070642;28;20263;-71
2023/07/12 07:00:42;;;;;;;5.43;3.37;;;26.50;79.30;;;;;;5070746;28;20575;-72
2023/07/12 07:03:12;;;;;;;4.57;3.43;;;26.60;78.20;;;;;;5070163;28;20208;-71
2023/07/12 07:05:41;;;;;;;5.80;3.87;;;26.60;77.30;;;;;;5070056;28;20797;-72
2023/07/12 07:08:09;;;;;;;7.37;3.63;;;26.70;76.60;;;;;;5070417;28;20300;-72
2023/07/12 07:10:36;;;;;;;6.20;3.87;;;26.70;77.40;;;;;;5070894;28;20208;-72
2023/07/12 07:13:03;;;;;;;4.97;3.57;;;26.70;76.80;;;;;;5070248;28;20647;-71
2023/07/12 07:15:30;;;;;;;6.83;4.37;;;26.80;76.50;;;;;;5069904;28;20744;-71
2023/07/12 07:17:57;;;;;;;7.20;3.43;;;26.70;76.00;;;;;;5070489;28;20207;-71
2023/07/12 07:20:27;;;;;;;6.67;4.10;;;26.80;76.20;;;;;;5069347;28;20285;-71
2023/07/12 07:22:54;;;;;;;5.40;3.63;;;26.90;75.50;;;;;;5070944;28;20202;-71
2023/07/12 07:25:21;;;;;;;6.30;4.00;;;27.00;75.30;;;;;;5070703;28;20207;-71
2023/07/12 07:27:48;;;;;;;3.77;3.43;;;27.10;74.30;;;;;;5071053;28;20239;-71
2023/07/12 07:30:16;;;;;;;5.67;3.57;;;27.00;74.30;;;;;;5070746;28;20680;-71
2023/07/12 07:32:43;;;;;;;7.70;3.80;;;27.20;74.70;;;;;;5070736;28;20221;-71
2023/07/12 07:35:11;;;;;;;6.83;3.93;;;27.20;75.70;;;;;;5070737;28;20192;-72
2023/07/12 07:37:40;;;;;;;6.57;4.07;;;27.40;75.90;;;;;;5071036;28;20318;-71
2023/07/12 07:40:08;;;;;;;5.43;3.70;;;27.40;75.80;;;;;;5071050;28;20228;-71
2023/07/12 07:42:35;;;;;;;6.37;3.67;;;27.50;75.90;;;;;;5070555;28;20222;-71
2023/07/12 07:45:02;;;;;;;8.87;4.23;;;27.60;75.20;;;;;;5070174;28;20228;-71
2023/07/12 07:47:29;;;;;;;5.97;3.97;;;27.60;75.00;;;;;;5070474;28;20217;-72
2023/07/12 07:49:56;;;;;;;5.87;3.93;;;27.70;75.10;;;;;;5070691;28;20207;-72
2023/07/12 07:52:23;;;;;;;4.97;4.07;;;27.80;74.20;;;;;;5070360;28;20208;-72
2023/07/12 07:54:51;;;;;;;8.30;3.90;;;27.90;74.10;;;;;;5070218;28;20216;-72
2023/07/12 07:57:18;;;;;;;5.90;3.90;;;28.00;73.40;;;;;;5070474;28;20326;-72
2023/07/12 07:59:44;;;;;;;5.70;4.40;;;28.10;73.00;;;;;;5070369;28;20595;-72
2023/07/12 08:02:11;;;;;;;7.80;4.00;;;28.00;72.40;;;;;;5070549;28;20225;-72
2023/07/12 08:04:39;;;;;;;4.30;3.67;;;28.10;72.60;;;;;;5070543;28;20217;-72
2023/07/12 08:07:07;;;;;;;6.17;4.13;;;28.20;72.40;;;;;;5070217;28;20205;-72
2023/07/12 08:09:35;;;;;;;7.27;3.60;;;28.30;72.10;;;;;;5070463;28;20315;-72
2023/07/12 08:12:04;;;;;;;5.17;4.07;;;28.30;71.70;;;;;;5070666;28;20204;-72
2023/07/12 08:14:31;;;;;;;8.17;4.03;;;28.30;72.10;;;;;;5070464;28;20204;-72
2023/07/12 08:16:58;;;;;;;8.00;4.00;;;28.30;71.60;;;;;;5070252;28;20223;-72
2023/07/12 08:19:25;;;;;;;4.30;3.40;;;28.20;71.40;;;;;;5070560;28;20227;-72
2023/07/12 08:21:51;;;;;;;7.10;4.00;;;28.20;71.80;;;;;;5070150;28;20561;-72
2023/07/12 08:24:18;;;;;;;5.07;4.17;;;28.20;71.40;;;;;;5070631;28;20241;-72
2023/07/12 08:26:45;;;;;;;4.93;3.80;;;28.30;71.30;;;;;;5070423;28;20216;-72
2023/07/12 08:29:13;;;;;;;3.83;3.30;;;28.50;70.70;;;;;;5070009;28;20239;-71
2023/07/12 08:31:40;;;;;;;5.07;3.83;;;28.70;70.10;;;;;;5070558;28;20201;-72
2023/07/12 08:34:07;;;;;;;5.87;3.50;;;28.80;69.50;;;;;;5070226;28;20322;-72
2023/07/12 08:36:34;;;;;;;5.53;3.50;;;28.80;68.80;;;;;;5070403;28;20745;-71
2023/07/12 08:39:01;;;;;;;5.67;3.80;;;28.80;67.60;;;;;;5069956;28;20736;-72
2023/07/12 08:41:29;;;;;;;4.50;3.50;;;28.80;67.60;;;;;;5070151;28;20231;-72
2023/07/12 08:43:56;;;;;;;5.77;3.70;;;28.90;68.30;;;;;;5051641;28;20309;-71
2023/07/12 08:46:26;;;;;;;6.90;3.60;;;29.10;67.80;;;;;;5049613;28;20850;-71
2023/07/12 08:48:58;;;;;;;4.17;2.97;;;29.20;67.30;;;;;;5049574;28;20212;-72
2023/07/12 08:51:28;;;;;;;4.50;2.80;;;29.20;65.50;;;;;;5049737;28;20202;-71
2023/07/12 08:53:55;;;;;;;4.70;3.10;;;29.00;65.00;;;;;;5057479;28;20220;-71
2023/07/12 08:56:22;;;;;;;8.50;3.03;;;29.10;65.40;;;;;;5070518;28;20208;-71
2023/07/12 08:58:51;;;;;;;4.30;2.93;;;29.20;64.80;;;;;;5069706;28;20306;-71
2023/07/12 09:01:38;;;;;;;5.90;3.20;;;29.30;64.50;;;;;;5070533;28;20224;-71
2023/07/12 09:04:25;;;;;;;10.03;2.93;;;29.40;63.00;;;;;;5070071;28;20190;-72
2023/07/12 09:06:54;;;;;;;5.17;2.97;;;29.50;63.20;;;;;;5072150;28;20227;-72
2023/07/12 09:09:21;;;;;;;4.23;2.80;;;29.40;59.80;;;;;;5073628;28;20244;-71
2023/07/12 09:11:48;;;;;;;3.07;2.77;;;29.30;60.00;;;;;;5073239;28;20235;-72
2023/07/12 09:14:17;;;;;;;4.10;2.70;;;29.30;60.40;;;;;;5073711;28;20220;-72
2023/07/12 09:16:48;;;;;;;2.50;2.27;;;29.50;60.30;;;;;;5073570;28;20308;-71
2023/07/12 09:19:16;;;;;;;2.40;2.17;;;29.40;59.00;;;;;;5073088;28;20684;-72
2023/07/12 09:21:49;;;;;;;2.90;2.23;;;29.40;58.70;;;;;;5073364;28;20235;-72
2023/07/12 09:24:20;;;;;;;5.20;2.50;;;29.50;59.00;;;;;;5073497;28;20255;-72
2023/07/12 09:26:48;;;;;;;4.07;2.60;;;29.50;58.00;;;;;;5073290;28;20200;-71
2023/07/12 09:29:20;;;;;;;2.37;2.17;;;29.60;58.20;;;;;;5072991;28;20799;-72
2023/07/12 09:31:49;;;;;;;3.63;2.10;;;29.70;57.10;;;;;;5072937;28;20205;-72
2023/07/12 09:34:21;;;;;;;2.53;2.20;;;29.70;56.90;;;;;;5073032;28;20223;-71
2023/07/12 09:36:55;;;;;;;3.30;2.43;;;29.60;57.80;;;;;;5073013;28;20240;-72
2023/07/12 09:39:23;;;;;;;4.07;2.30;;;29.70;57.60;;;;;;5073134;28;20580;-72
2023/07/12 09:41:54;;;;;;;3.30;2.33;;;29.70;57.80;;;;;;5072560;28;20325;-72
2023/07/12 09:44:20;;;;;;;3.30;2.73;;;29.70;57.10;;;;;;5053207;28;20189;-72
2023/07/12 09:46:53;;;;;;;2.97;2.30;;;29.70;56.70;;;;;;5053238;28;20567;-71
2023/07/12 09:49:23;;;;;;;4.03;2.07;;;29.70;56.80;;;;;;5052555;28;20320;-72
2023/07/12 09:51:58;;;;;;;2.43;2.20;;;29.90;56.20;;;;;;5035249;28;20220;-72
2023/07/12 09:54:41;;;;;;;3.83;2.10;;;30.00;53.80;;;;;;5052676;28;20195;-72
2023/07/12 09:57:15;;;;;;;2.90;2.03;;;29.90;54.00;;;;;;5052840;28;20277;-72
2023/07/12 09:59:53;;;;;;;4.17;2.00;;;30.00;55.20;;;;;;5052281;28;20232;-72
2023/07/12 10:02:31;;;;;;;2.23;2.03;;;30.20;55.20;;;;;;5052602;28;20236;-72
2023/07/12 10:05:02;;;;;;;2.63;2.07;;;30.30;53.90;;;;;;5056121;28;20189;-72
2023/07/12 10:07:37;;;;;;;3.63;2.60;;;30.40;54.60;;;;;;5072531;28;20709;-72
2023/07/12 10:10:13;;;;;;;4.80;2.37;;;30.50;54.40;;;;;;5072027;28;20185;-72
2023/07/12 10:12:47;;;;;;;4.23;2.20;;;30.50;53.60;;;;;;5072199;28;20199;-72
2023/07/12 10:15:14;;;;;;;2.70;2.17;;;30.50;53.10;;;;;;5072328;28;20200;-72
2023/07/12 10:17:45;;;;;;;3.73;2.13;;;30.60;53.60;;;;;;5072389;28;20208;-72
2023/07/12 10:20:18;;;;;;;2.53;2.33;;;30.60;53.40;;;;;;5072122;28;20225;-72
2023/07/12 10:22:46;;;;;;;2.80;2.20;;;30.80;53.40;;;;;;5072244;28;20209;-72
2023/07/12 10:25:21;;;;;;;2.60;2.40;;;30.80;52.90;;;;;;5071919;28;20305;-72
2023/07/12 10:27:53;;;;;;;3.13;2.10;;;30.80;53.30;;;;;;5072253;28;20191;-73
2023/07/12 10:30:25;;;;;;;2.43;2.10;;;30.80;52.50;;;;;;5071812;28;20665;-70
2023/07/12 10:32:58;;;;;;;2.53;2.03;;;30.80;52.90;;;;;;5072014;28;20229;-72
2023/07/12 10:35:32;;;;;;;3.23;2.40;;;31.00;53.80;;;;;;5072235;28;20189;-72
2023/07/12 10:38:03;;;;;;;5.03;2.40;;;31.00;52.00;;;;;;5072263;28;20288;-73
2023/07/12 10:40:34;;;;;;;3.97;2.27;;;31.00;53.10;;;;;;5071711;28;20683;-73
2023/07/12 10:43:06;;;;;;;2.87;2.10;;;31.00;53.10;;;;;;5071704;28;20205;-73
2023/07/12 10:45:38;;;;;;;5.10;2.30;;;31.10;53.20;;;;;;5071767;28;20236;-72
2023/07/12 10:48:08;;;;;;;2.80;2.50;;;31.10;52.30;;;;;;5072073;28;20189;-73
2023/07/12 10:50:39;;;;;;;3.77;2.53;;;31.00;52.30;;;;;;5071655;28;20620;-72
2023/07/12 10:53:12;;;;;;;3.67;2.33;;;31.00;52.80;;;;;;5071155;28;20183;-73
2023/07/12 10:55:44;;;;;;;2.20;2.00;;;31.00;52.60;;;;;;5071737;28;20475;-72
2023/07/12 10:58:26;;;;;;;2.93;2.30;;;31.00;52.00;;;;;;5071343;28;20236;-72
2023/07/12 11:00:56;;;;;;;2.00;1.80;;;30.80;52.00;;;;;;5071886;28;20238;-73
2023/07/12 11:03:34;;;;;;;5.50;2.20;;;30.90;52.10;;;;;;5071128;28;20236;-73
2023/07/12 11:06:07;;;;;;;2.60;2.30;;;31.00;52.00;;;;;;5071659;28;20613;-73
2023/07/12 11:08:45;;;;;;;3.80;2.37;;;31.10;52.60;;;;;;5071385;28;20191;-73
2023/07/12 11:11:36;;;;;;;3.07;2.13;;;31.20;53.00;;;;;;5071521;28;20195;-71
2023/07/12 11:14:16;;;;;;;2.63;2.27;;;31.30;52.10;;;;;;5071051;28;20266;-71
2023/07/12 11:17:10;;;;;;;3.27;2.43;;;31.40;52.40;;;;;;5071167;28;20194;-71
2023/07/12 11:20:04;;;;;;;2.67;2.20;;;31.40;52.10;;;;;;5071289;28;20228;-73
2023/07/12 11:23:01;;;;;;;3.47;2.30;;;31.40;51.00;;;;;;5069543;28;20252;-73
2023/07/12 11:25:34;;;;;;;2.40;2.20;;;31.40;51.50;;;;;;5071043;28;20239;-73
2023/07/12 11:28:04;;;;;;;3.73;2.10;;;31.60;51.80;;;;;;5070941;28;20319;-72
2023/07/12 11:30:43;;;;;;;3.73;2.40;;;31.70;51.30;;;;;;5070778;28;20209;-73
2023/07/12 11:33:24;;;;;;;2.40;2.20;;;31.80;51.70;;;;;;5070955;28;20189;-72
2023/07/12 11:35:56;;;;;;;2.87;2.30;;;31.70;51.60;;;;;;5070850;28;20842;-72
2023/07/12 11:38:27;;;;;;;3.50;2.50;;;31.60;51.90;;;;;;5070695;28;20664;-72
2023/07/12 11:40:55;;;;;;;2.30;2.10;;;31.80;51.80;;;;;;5070840;28;20230;-72
2023/07/12 11:43:34;;;;;;;3.10;2.20;;;31.70;51.40;;;;;;5070197;28;20701;-72
2023/07/12 11:46:03;;;;;;;4.73;2.37;;;31.80;51.50;;;;;;5070027;28;20268;-71
2023/07/12 11:48:32;;;;;;;2.80;2.27;;;31.80;51.70;;;;;;5071090;28;20212;-72
2023/07/12 11:51:04;;;;;;;3.97;2.60;;;32.00;51.50;;;;;;5070388;28;20229;-72
2023/07/12 11:53:31;;;;;;;5.03;2.60;;;32.00;50.60;;;;;;5069955;28;20235;-72
2023/07/12 11:55:58;;;;;;;4.23;2.53;;;31.80;51.40;;;;;;5070805;28;20210;-71
2023/07/12 11:58:27;;;;;;;2.17;1.97;;;32.00;51.90;;;;;;5070728;28;20316;-72
2023/07/12 12:00:57;;;;;;;2.57;2.00;;;31.90;50.50;;;;;;5070711;28;20605;-73
2023/07/12 12:03:24;;;;;;;2.70;2.30;;;31.90;51.10;;;;;;5034486;28;20229;-72
2023/07/12 12:05:52;;;;;;;3.10;2.60;;;31.90;50.60;;;;;;5059797;28;20256;-72
2023/07/12 12:08:23;;;;;;;5.00;2.40;;;31.90;49.70;;;;;;5050890;28;20222;-72
2023/07/12 12:10:50;;;;;;;2.53;2.30;;;31.90;49.60;;;;;;5050636;28;20195;-72
2023/07/12 12:13:27;;;;;;;2.70;2.27;;;31.80;50.20;;;;;;5050163;28;20206;-73
2023/07/12 12:16:04;;;;;;;2.80;2.17;;;31.90;49.30;;;;;;5050487;28;20639;-72
2023/07/12 12:18:32;;;;;;;4.40;2.53;;;32.10;50.70;;;;;;5050757;28;20191;-73
2023/07/12 12:21:04;;;;;;;4.77;2.23;;;32.30;50.10;;;;;;5064822;28;20767;-73
2023/07/12 12:23:36;;;;;;;4.13;2.33;;;32.30;49.00;;;;;;5070361;28;20693;-72
2023/07/12 12:26:13;;;;;;;3.63;2.37;;;32.30;49.00;;;;;;5070697;28;20195;-73
2023/07/12 12:28:42;;;;;;;3.40;2.20;;;32.20;48.60;;;;;;5070348;28;20191;-73
2023/07/12 12:31:18;;;;;;;3.00;2.10;;;32.30;48.60;;;;;;5070754;28;20317;-73
2023/07/12 12:33:47;;;;;;;4.10;3.00;;;32.30;48.50;;;;;;5070007;28;20317;-73
2023/07/12 12:36:22;;;;;;;2.23;1.93;;;32.30;48.10;;;;;;5070432;28;20206;-71
2023/07/12 12:39:03;;;;;;;3.10;2.10;;;32.30;47.90;;;;;;5070363;28;20322;-72
2023/07/12 12:41:40;;;;;;;2.63;2.17;;;32.20;46.70;;;;;;5074134;28;20186;-72
2023/07/12 12:44:09;;;;;;;2.20;2.00;;;32.30;47.00;;;;;;5073600;28;20234;-72
2023/07/12 12:46:36;;;;;;;3.00;2.40;;;32.30;46.40;;;;;;5074396;28;20211;-73
2023/07/12 12:49:04;;;;;;;5.47;2.73;;;32.20;46.90;;;;;;5073950;28;20817;-73
2023/07/12 12:51:32;;;;;;;3.57;2.30;;;32.10;46.60;;;;;;5074162;28;20256;-72
2023/07/12 12:54:00;;;;;;;3.53;2.50;;;31.80;46.00;;;;;;5073793;28;20671;-72
2023/07/12 12:56:27;;;;;;;2.27;2.00;;;31.80;46.20;;;;;;5073800;28;20364;-73
2023/07/12 12:58:54;;;;;;;2.37;2.17;;;31.80;46.30;;;;;;5073720;28;20210;-72